sensor_id;sensor_type;location;lat;lon;timestamp;P1;durP1;ratioP1;P2;durP2;ratioP2
11763;SDS011;5939;56.522;14.950;2023-02-11T00:01:24;3.53;;;1.87;;
11763;SDS011;5939;56.522;14.950;2023-02-11T00:03:52;4.50;;;1.70;;
11763;SDS011;5939;56.522;14.950;2023-02-11T00:06:18;3.20;;;2.00;;
11763;SDS011;5939;56.522;14.950;2023-02-11T00:08:44;2.60;;;2.00;;
11763;SDS011;5939;56.522;14.950;2023-02-11T00:11:13;5.23;;;2.33;;
11763;SDS011;5939;56.522;14.950;2023-02-11T00:13:41;2.80;;;2.00;;
11763;SDS011;5939;56.522;14.950;2023-02-11T00:16:08;3.30;;;1.97;;
11763;SDS011;5939;56.522;14.950;2023-02-11T00:18:34;2.80;;;1.67;;
11763;SDS011;5939;56.522;14.950;2023-02-11T00:21:04;3.70;;;1.67;;
11763;SDS011;5939;56.522;14.950;2023-02-11T00:23:31;2.37;;;1.60;;
11763;SDS011;5939;56.522;14.950;2023-02-11T00:25:57;1.80;;;1.40;;
11763;SDS011;5939;56.522;14.950;2023-02-11T00:28:22;1.60;;;1.50;;
11763;SDS011;5939;56.522;14.950;2023-02-11T00:30:57;2.80;;;1.70;;
11763;SDS011;5939;56.522;14.950;2023-02-11T00:33:25;2.80;;;1.50;;
11763;SDS011;5939;56.522;14.950;2023-02-11T00:35:51;2.37;;;1.40;;
11763;SDS011;5939;56.522;14.950;2023-02-11T00:38:16;2.83;;;1.50;;
11763;SDS011;5939;56.522;14.950;2023-02-11T00:40:42;2.77;;;1.37;;
11763;SDS011;5939;56.522;14.950;2023-02-11T00:43:08;3.43;;;1.70;;
11763;SDS011;5939;56.522;14.950;2023-02-11T00:45:33;1.93;;;1.33;;
11763;SDS011;5939;56.522;14.950;2023-02-11T00:47:59;2.43;;;1.40;;
11763;SDS011;5939;56.522;14.950;2023-02-11T00:50:24;1.50;;;1.20;;
11763;SDS011;5939;56.522;14.950;2023-02-11T00:52:50;2.13;;;1.13;;
11763;SDS011;5939;56.522;14.950;2023-02-11T00:55:16;1.20;;;1.10;;
11763;SDS011;5939;56.522;14.950;2023-02-11T00:57:42;3.10;;;1.30;;
11763;SDS011;5939;56.522;14.950;2023-02-11T01:00:08;1.67;;;1.00;;
11763;SDS011;5939;56.522;14.950;2023-02-11T01:02:36;2.53;;;1.10;;
11763;SDS011;5939;56.522;14.950;2023-02-11T01:05:02;1.33;;;1.20;;
11763;SDS011;5939;56.522;14.950;2023-02-11T01:07:29;1.03;;;0.90;;
11763;SDS011;5939;56.522;14.950;2023-02-11T01:09:54;1.00;;;0.90;;
11763;SDS011;5939;56.522;14.950;2023-02-11T01:12:20;1.80;;;1.10;;
11763;SDS011;5939;56.522;14.950;2023-02-11T01:14:46;1.07;;;0.97;;
11763;SDS011;5939;56.522;14.950;2023-02-11T01:17:12;1.60;;;0.90;;
11763;SDS011;5939;56.522;14.950;2023-02-11T01:19:38;1.00;;;0.90;;
11763;SDS011;5939;56.522;14.950;2023-02-11T01:22:05;0.83;;;0.80;;
11763;SDS011;5939;56.522;14.950;2023-02-11T01:24:31;0.80;;;0.80;;
11763;SDS011;5939;56.522;14.950;2023-02-11T01:26:57;1.67;;;0.80;;
11763;SDS011;5939;56.522;14.950;2023-02-11T01:29:23;1.23;;;0.90;;
11763;SDS011;5939;56.522;14.950;2023-02-11T01:31:49;0.87;;;0.80;;
11763;SDS011;5939;56.522;14.950;2023-02-11T01:34:15;1.47;;;0.80;;
11763;SDS011;5939;56.522;14.950;2023-02-11T01:36:41;0.90;;;0.80;;
11763;SDS011;5939;56.522;14.950;2023-02-11T01:39:07;0.70;;;0.70;;
11763;SDS011;5939;56.522;14.950;2023-02-11T01:41:33;0.80;;;0.80;;
11763;SDS011;5939;56.522;14.950;2023-02-11T01:46:46;1.60;;;0.70;;
11763;SDS011;5939;56.522;14.950;2023-02-11T01:49:14;0.77;;;0.70;;
11763;SDS011;5939;56.522;14.950;2023-02-11T01:51:47;1.00;;;0.77;;
11763;SDS011;5939;56.522;14.950;2023-02-11T01:54:25;2.23;;;0.80;;
11763;SDS011;5939;56.522;14.950;2023-02-11T01:57:13;0.73;;;0.70;;
11763;SDS011;5939;56.522;14.950;2023-02-11T02:00:25;0.50;;;0.50;;
11763;SDS011;5939;56.522;14.950;2023-02-11T02:05:32;1.60;;;0.70;;
11763;SDS011;5939;56.522;14.950;2023-02-11T02:10:50;0.67;;;0.60;;
11763;SDS011;5939;56.522;14.950;2023-02-11T02:13:20;1.73;;;0.80;;
11763;SDS011;5939;56.522;14.950;2023-02-11T02:15:51;1.20;;;0.80;;
11763;SDS011;5939;56.522;14.950;2023-02-11T02:31:51;1.77;;;0.80;;
11763;SDS011;5939;56.522;14.950;2023-02-11T02:34:47;1.43;;;0.83;;
11763;SDS011;5939;56.522;14.950;2023-02-11T02:37:41;1.87;;;0.70;;
11763;SDS011;5939;56.522;14.950;2023-02-11T02:40:10;1.33;;;0.80;;
11763;SDS011;5939;56.522;14.950;2023-02-11T02:42:40;0.80;;;0.77;;
11763;SDS011;5939;56.522;14.950;2023-02-11T02:45:08;1.50;;;0.73;;
11763;SDS011;5939;56.522;14.950;2023-02-11T02:47:35;0.83;;;0.70;;
11763;SDS011;5939;56.522;14.950;2023-02-11T02:50:02;2.33;;;0.97;;
11763;SDS011;5939;56.522;14.950;2023-02-11T02:55:36;1.73;;;0.70;;
11763;SDS011;5939;56.522;14.950;2023-02-11T02:58:24;0.87;;;0.73;;
11763;SDS011;5939;56.522;14.950;2023-02-11T03:06:47;1.50;;;0.73;;
11763;SDS011;5939;56.522;14.950;2023-02-11T03:09:36;2.33;;;0.77;;
11763;SDS011;5939;56.522;14.950;2023-02-11T03:12:12;2.63;;;0.93;;
11763;SDS011;5939;56.522;14.950;2023-02-11T03:14:39;1.57;;;0.80;;
11763;SDS011;5939;56.522;14.950;2023-02-11T03:17:06;1.37;;;0.83;;
11763;SDS011;5939;56.522;14.950;2023-02-11T03:19:35;0.87;;;0.60;;
11763;SDS011;5939;56.522;14.950;2023-02-11T03:22:04;1.23;;;0.80;;
11763;SDS011;5939;56.522;14.950;2023-02-11T03:24:34;1.40;;;0.90;;
11763;SDS011;5939;56.522;14.950;2023-02-11T03:27:05;1.10;;;0.60;;
11763;SDS011;5939;56.522;14.950;2023-02-11T03:40:13;2.93;;;0.80;;
11763;SDS011;5939;56.522;14.950;2023-02-11T03:43:16;2.83;;;0.97;;
11763;SDS011;5939;56.522;14.950;2023-02-11T03:45:41;1.87;;;0.80;;
11763;SDS011;5939;56.522;14.950;2023-02-11T03:48:19;2.20;;;0.87;;
11763;SDS011;5939;56.522;14.950;2023-02-11T03:50:55;1.83;;;0.80;;
11763;SDS011;5939;56.522;14.950;2023-02-11T03:53:23;1.60;;;0.80;;
11763;SDS011;5939;56.522;14.950;2023-02-11T03:55:50;1.70;;;0.90;;
11763;SDS011;5939;56.522;14.950;2023-02-11T03:58:18;2.30;;;0.90;;
11763;SDS011;5939;56.522;14.950;2023-02-11T04:00:44;4.23;;;1.10;;
11763;SDS011;5939;56.522;14.950;2023-02-11T04:03:10;3.87;;;0.97;;
11763;SDS011;5939;56.522;14.950;2023-02-11T04:05:37;2.70;;;1.33;;
11763;SDS011;5939;56.522;14.950;2023-02-11T04:08:03;4.47;;;1.30;;
11763;SDS011;5939;56.522;14.950;2023-02-11T04:10:29;1.80;;;0.87;;
11763;SDS011;5939;56.522;14.950;2023-02-11T04:12:55;2.73;;;0.93;;
11763;SDS011;5939;56.522;14.950;2023-02-11T04:15:21;4.60;;;1.50;;
11763;SDS011;5939;56.522;14.950;2023-02-11T04:17:46;3.70;;;1.23;;
11763;SDS011;5939;56.522;14.950;2023-02-11T04:20:12;3.27;;;1.17;;
11763;SDS011;5939;56.522;14.950;2023-02-11T04:22:38;3.97;;;1.43;;
11763;SDS011;5939;56.522;14.950;2023-02-11T04:25:04;3.23;;;1.20;;
11763;SDS011;5939;56.522;14.950;2023-02-11T04:27:30;3.70;;;1.10;;
11763;SDS011;5939;56.522;14.950;2023-02-11T04:29:56;5.03;;;1.60;;
11763;SDS011;5939;56.522;14.950;2023-02-11T04:32:22;2.70;;;1.00;;
11763;SDS011;5939;56.522;14.950;2023-02-11T04:34:48;5.23;;;1.50;;
11763;SDS011;5939;56.522;14.950;2023-02-11T04:37:14;5.27;;;1.60;;
11763;SDS011;5939;56.522;14.950;2023-02-11T04:39:39;5.20;;;1.30;;
11763;SDS011;5939;56.522;14.950;2023-02-11T04:42:05;5.03;;;1.50;;
11763;SDS011;5939;56.522;14.950;2023-02-11T04:44:31;5.27;;;1.60;;
11763;SDS011;5939;56.522;14.950;2023-02-11T04:46:57;5.50;;;1.47;;
11763;SDS011;5939;56.522;14.950;2023-02-11T04:49:23;4.20;;;1.47;;
11763;SDS011;5939;56.522;14.950;2023-02-11T04:51:49;1.70;;;1.13;;
11763;SDS011;5939;56.522;14.950;2023-02-11T04:54:15;3.23;;;1.20;;
11763;SDS011;5939;56.522;14.950;2023-02-11T04:56:40;4.27;;;1.40;;
11763;SDS011;5939;56.522;14.950;2023-02-11T04:59:06;3.70;;;1.20;;
11763;SDS011;5939;56.522;14.950;2023-02-11T05:01:32;2.73;;;1.23;;
11763;SDS011;5939;56.522;14.950;2023-02-11T05:03:58;4.03;;;1.20;;
11763;SDS011;5939;56.522;14.950;2023-02-11T05:06:24;2.83;;;1.10;;
11763;SDS011;5939;56.522;14.950;2023-02-11T05:08:49;3.20;;;1.50;;
11763;SDS011;5939;56.522;14.950;2023-02-11T05:11:16;1.77;;;1.20;;
11763;SDS011;5939;56.522;14.950;2023-02-11T05:13:44;2.50;;;1.20;;
11763;SDS011;5939;56.522;14.950;2023-02-11T05:16:10;2.10;;;1.00;;
11763;SDS011;5939;56.522;14.950;2023-02-11T05:18:37;5.40;;;1.40;;
11763;SDS011;5939;56.522;14.950;2023-02-11T05:21:07;3.00;;;1.00;;
11763;SDS011;5939;56.522;14.950;2023-02-11T05:23:34;4.10;;;1.17;;
11763;SDS011;5939;56.522;14.950;2023-02-11T05:26:00;2.03;;;0.90;;
11763;SDS011;5939;56.522;14.950;2023-02-11T05:28:27;2.27;;;1.10;;
11763;SDS011;5939;56.522;14.950;2023-02-11T05:30:52;2.13;;;1.07;;
11763;SDS011;5939;56.522;14.950;2023-02-11T05:33:18;1.93;;;1.00;;
11763;SDS011;5939;56.522;14.950;2023-02-11T05:35:44;1.53;;;0.80;;
11763;SDS011;5939;56.522;14.950;2023-02-11T05:38:10;2.00;;;1.17;;
11763;SDS011;5939;56.522;14.950;2023-02-11T05:40:36;0.97;;;0.80;;
11763;SDS011;5939;56.522;14.950;2023-02-11T05:43:01;2.33;;;1.07;;
11763;SDS011;5939;56.522;14.950;2023-02-11T05:45:27;1.67;;;0.90;;
11763;SDS011;5939;56.522;14.950;2023-02-11T05:47:53;3.00;;;1.10;;
11763;SDS011;5939;56.522;14.950;2023-02-11T05:50:19;1.80;;;0.73;;
11763;SDS011;5939;56.522;14.950;2023-02-11T05:52:44;2.87;;;0.77;;
11763;SDS011;5939;56.522;14.950;2023-02-11T05:55:10;2.03;;;0.80;;
11763;SDS011;5939;56.522;14.950;2023-02-11T05:57:36;2.03;;;0.80;;
11763;SDS011;5939;56.522;14.950;2023-02-11T06:00:02;1.53;;;0.90;;
11763;SDS011;5939;56.522;14.950;2023-02-11T06:02:29;1.00;;;0.70;;
11763;SDS011;5939;56.522;14.950;2023-02-11T06:04:55;3.43;;;0.80;;
11763;SDS011;5939;56.522;14.950;2023-02-11T06:07:20;3.83;;;1.00;;
11763;SDS011;5939;56.522;14.950;2023-02-11T06:09:46;2.03;;;0.90;;
11763;SDS011;5939;56.522;14.950;2023-02-11T06:12:12;1.50;;;0.80;;
11763;SDS011;5939;56.522;14.950;2023-02-11T06:14:37;1.30;;;0.60;;
11763;SDS011;5939;56.522;14.950;2023-02-11T06:17:03;0.80;;;0.57;;
11763;SDS011;5939;56.522;14.950;2023-02-11T06:19:29;1.97;;;0.83;;
11763;SDS011;5939;56.522;14.950;2023-02-11T06:21:55;1.77;;;0.90;;
11763;SDS011;5939;56.522;14.950;2023-02-11T06:24:21;2.23;;;0.83;;
11763;SDS011;5939;56.522;14.950;2023-02-11T06:26:47;1.87;;;0.80;;
11763;SDS011;5939;56.522;14.950;2023-02-11T06:29:13;0.73;;;0.60;;
11763;SDS011;5939;56.522;14.950;2023-02-11T06:31:39;1.93;;;0.73;;
11763;SDS011;5939;56.522;14.950;2023-02-11T06:34:05;3.60;;;1.00;;
11763;SDS011;5939;56.522;14.950;2023-02-11T06:36:34;2.30;;;1.00;;
11763;SDS011;5939;56.522;14.950;2023-02-11T06:39:02;1.43;;;0.70;;
11763;SDS011;5939;56.522;14.950;2023-02-11T06:41:27;2.07;;;0.80;;
11763;SDS011;5939;56.522;14.950;2023-02-11T06:43:53;1.07;;;0.67;;
11763;SDS011;5939;56.522;14.950;2023-02-11T06:46:19;2.77;;;0.73;;
11763;SDS011;5939;56.522;14.950;2023-02-11T06:48:44;2.40;;;0.70;;
11763;SDS011;5939;56.522;14.950;2023-02-11T06:51:11;2.27;;;0.80;;
11763;SDS011;5939;56.522;14.950;2023-02-11T06:53:38;1.20;;;0.90;;
11763;SDS011;5939;56.522;14.950;2023-02-11T06:56:06;2.83;;;0.80;;
11763;SDS011;5939;56.522;14.950;2023-02-11T06:58:35;2.60;;;0.80;;
11763;SDS011;5939;56.522;14.950;2023-02-11T07:01:07;1.50;;;0.70;;
11763;SDS011;5939;56.522;14.950;2023-02-11T07:03:36;0.90;;;0.70;;
11763;SDS011;5939;56.522;14.950;2023-02-11T07:06:03;3.23;;;0.80;;
11763;SDS011;5939;56.522;14.950;2023-02-11T07:08:29;2.13;;;1.00;;
11763;SDS011;5939;56.522;14.950;2023-02-11T07:11:00;1.97;;;0.90;;
11763;SDS011;5939;56.522;14.950;2023-02-11T07:13:26;1.60;;;0.90;;
11763;SDS011;5939;56.522;14.950;2023-02-11T07:15:51;3.37;;;1.13;;
11763;SDS011;5939;56.522;14.950;2023-02-11T07:18:17;3.73;;;1.10;;
11763;SDS011;5939;56.522;14.950;2023-02-11T07:20:43;3.03;;;0.90;;
11763;SDS011;5939;56.522;14.950;2023-02-11T07:23:09;4.53;;;1.23;;
11763;SDS011;5939;56.522;14.950;2023-02-11T07:25:35;3.50;;;1.10;;
11763;SDS011;5939;56.522;14.950;2023-02-11T07:28:02;3.93;;;1.20;;
11763;SDS011;5939;56.522;14.950;2023-02-11T07:30:28;2.70;;;1.07;;
11763;SDS011;5939;56.522;14.950;2023-02-11T07:32:54;4.63;;;1.23;;
11763;SDS011;5939;56.522;14.950;2023-02-11T07:35:20;3.17;;;1.20;;
11763;SDS011;5939;56.522;14.950;2023-02-11T07:37:46;3.97;;;1.40;;
11763;SDS011;5939;56.522;14.950;2023-02-11T07:40:11;2.87;;;1.23;;
11763;SDS011;5939;56.522;14.950;2023-02-11T07:42:37;6.07;;;1.50;;
11763;SDS011;5939;56.522;14.950;2023-02-11T07:45:05;3.63;;;1.37;;
11763;SDS011;5939;56.522;14.950;2023-02-11T07:47:31;2.53;;;1.10;;
11763;SDS011;5939;56.522;14.950;2023-02-11T07:49:58;3.13;;;1.20;;
11763;SDS011;5939;56.522;14.950;2023-02-11T07:52:24;4.33;;;1.50;;
11763;SDS011;5939;56.522;14.950;2023-02-11T07:54:53;4.07;;;1.47;;
11763;SDS011;5939;56.522;14.950;2023-02-11T07:57:18;5.33;;;1.40;;
11763;SDS011;5939;56.522;14.950;2023-02-11T07:59:44;6.07;;;1.87;;
11763;SDS011;5939;56.522;14.950;2023-02-11T08:02:09;5.03;;;1.50;;
11763;SDS011;5939;56.522;14.950;2023-02-11T08:04:35;6.80;;;1.67;;
11763;SDS011;5939;56.522;14.950;2023-02-11T08:07:01;5.47;;;1.60;;
11763;SDS011;5939;56.522;14.950;2023-02-11T08:09:26;2.00;;;1.33;;
11763;SDS011;5939;56.522;14.950;2023-02-11T08:11:52;5.40;;;1.73;;
11763;SDS011;5939;56.522;14.950;2023-02-11T08:14:18;4.53;;;1.90;;
11763;SDS011;5939;56.522;14.950;2023-02-11T08:16:44;7.80;;;1.90;;
11763;SDS011;5939;56.522;14.950;2023-02-11T08:19:13;5.77;;;1.77;;
11763;SDS011;5939;56.522;14.950;2023-02-11T08:21:40;5.50;;;1.67;;
11763;SDS011;5939;56.522;14.950;2023-02-11T08:24:06;5.03;;;1.63;;
11763;SDS011;5939;56.522;14.950;2023-02-11T08:26:33;7.03;;;1.90;;
11763;SDS011;5939;56.522;14.950;2023-02-11T08:29:00;7.23;;;1.93;;
11763;SDS011;5939;56.522;14.950;2023-02-11T08:31:33;7.13;;;1.80;;
11763;SDS011;5939;56.522;14.950;2023-02-11T08:34:00;7.13;;;1.80;;
11763;SDS011;5939;56.522;14.950;2023-02-11T08:36:27;7.40;;;1.80;;
11763;SDS011;5939;56.522;14.950;2023-02-11T08:38:55;8.70;;;1.77;;
11763;SDS011;5939;56.522;14.950;2023-02-11T08:41:21;7.20;;;2.10;;
11763;SDS011;5939;56.522;14.950;2023-02-11T08:43:47;9.30;;;1.90;;
11763;SDS011;5939;56.522;14.950;2023-02-11T08:46:14;8.47;;;2.50;;
11763;SDS011;5939;56.522;14.950;2023-02-11T08:48:42;8.63;;;2.30;;
11763;SDS011;5939;56.522;14.950;2023-02-11T08:51:09;7.93;;;2.60;;
11763;SDS011;5939;56.522;14.950;2023-02-11T08:53:39;6.70;;;2.00;;
11763;SDS011;5939;56.522;14.950;2023-02-11T08:56:05;8.90;;;1.90;;
11763;SDS011;5939;56.522;14.950;2023-02-11T08:58:31;6.40;;;1.87;;
11763;SDS011;5939;56.522;14.950;2023-02-11T09:00:57;6.00;;;1.70;;
11763;SDS011;5939;56.522;14.950;2023-02-11T09:03:23;7.73;;;2.00;;
11763;SDS011;5939;56.522;14.950;2023-02-11T09:05:49;6.33;;;1.87;;
11763;SDS011;5939;56.522;14.950;2023-02-11T09:08:17;8.87;;;2.20;;
11763;SDS011;5939;56.522;14.950;2023-02-11T09:10:44;8.13;;;2.27;;
11763;SDS011;5939;56.522;14.950;2023-02-11T09:13:10;6.17;;;2.07;;
11763;SDS011;5939;56.522;14.950;2023-02-11T09:15:36;6.27;;;2.07;;
11763;SDS011;5939;56.522;14.950;2023-02-11T09:18:02;10.27;;;1.90;;
11763;SDS011;5939;56.522;14.950;2023-02-11T09:20:29;8.73;;;2.63;;
11763;SDS011;5939;56.522;14.950;2023-02-11T09:22:55;11.93;;;2.43;;
11763;SDS011;5939;56.522;14.950;2023-02-11T09:25:22;10.10;;;2.33;;
11763;SDS011;5939;56.522;14.950;2023-02-11T09:27:48;6.57;;;2.40;;
11763;SDS011;5939;56.522;14.950;2023-02-11T09:30:16;6.93;;;1.97;;
11763;SDS011;5939;56.522;14.950;2023-02-11T09:32:41;6.47;;;2.07;;
11763;SDS011;5939;56.522;14.950;2023-02-11T09:35:07;7.20;;;2.20;;
11763;SDS011;5939;56.522;14.950;2023-02-11T09:37:33;6.87;;;2.20;;
11763;SDS011;5939;56.522;14.950;2023-02-11T09:39:58;7.60;;;2.20;;
11763;SDS011;5939;56.522;14.950;2023-02-11T09:44:54;7.63;;;2.43;;
11763;SDS011;5939;56.522;14.950;2023-02-11T09:47:24;13.50;;;2.60;;
11763;SDS011;5939;56.522;14.950;2023-02-11T09:50:01;10.27;;;2.10;;
11763;SDS011;5939;56.522;14.950;2023-02-11T09:52:32;9.57;;;2.50;;
11763;SDS011;5939;56.522;14.950;2023-02-11T09:55:26;8.23;;;2.80;;
11763;SDS011;5939;56.522;14.950;2023-02-11T09:57:51;7.43;;;2.67;;
11763;SDS011;5939;56.522;14.950;2023-02-11T10:00:32;8.13;;;2.73;;
11763;SDS011;5939;56.522;14.950;2023-02-11T10:03:17;8.70;;;2.57;;
11763;SDS011;5939;56.522;14.950;2023-02-11T10:11:30;11.80;;;2.30;;
11763;SDS011;5939;56.522;14.950;2023-02-11T10:23:04;10.17;;;2.37;;
11763;SDS011;5939;56.522;14.950;2023-02-11T10:25:53;10.20;;;2.53;;
11763;SDS011;5939;56.522;14.950;2023-02-11T10:28:31;7.83;;;2.30;;
11763;SDS011;5939;56.522;14.950;2023-02-11T10:30:59;10.27;;;2.43;;
11763;SDS011;5939;56.522;14.950;2023-02-11T10:36:15;13.60;;;2.93;;
11763;SDS011;5939;56.522;14.950;2023-02-11T10:38:42;12.03;;;2.60;;
11763;SDS011;5939;56.522;14.950;2023-02-11T10:41:19;8.40;;;2.50;;
11763;SDS011;5939;56.522;14.950;2023-02-11T10:43:58;11.77;;;2.60;;
11763;SDS011;5939;56.522;14.950;2023-02-11T10:46:26;16.00;;;2.67;;
11763;SDS011;5939;56.522;14.950;2023-02-11T10:48:55;10.37;;;2.50;;
11763;SDS011;5939;56.522;14.950;2023-02-11T10:51:23;12.63;;;2.43;;
11763;SDS011;5939;56.522;14.950;2023-02-11T10:56:29;7.77;;;2.27;;
11763;SDS011;5939;56.522;14.950;2023-02-11T11:04:46;9.60;;;2.47;;
11763;SDS011;5939;56.522;14.950;2023-02-11T11:07:25;12.00;;;2.00;;
11763;SDS011;5939;56.522;14.950;2023-02-11T11:09:54;9.63;;;2.70;;
11763;SDS011;5939;56.522;14.950;2023-02-11T11:12:33;8.33;;;2.40;;
11763;SDS011;5939;56.522;14.950;2023-02-11T11:15:00;8.20;;;2.43;;
11763;SDS011;5939;56.522;14.950;2023-02-11T11:17:38;10.40;;;2.80;;
11763;SDS011;5939;56.522;14.950;2023-02-11T11:20:21;6.13;;;2.30;;
11763;SDS011;5939;56.522;14.950;2023-02-11T11:23:08;8.43;;;2.47;;
11763;SDS011;5939;56.522;14.950;2023-02-11T11:25:41;7.53;;;1.90;;
11763;SDS011;5939;56.522;14.950;2023-02-11T11:28:21;10.97;;;2.87;;
11763;SDS011;5939;56.522;14.950;2023-02-11T11:30:49;9.13;;;2.37;;
11763;SDS011;5939;56.522;14.950;2023-02-11T11:33:24;6.57;;;2.23;;
11763;SDS011;5939;56.522;14.950;2023-02-11T11:36:00;8.87;;;2.10;;
11763;SDS011;5939;56.522;14.950;2023-02-11T11:38:29;8.03;;;2.20;;
11763;SDS011;5939;56.522;14.950;2023-02-11T11:46:41;4.90;;;2.13;;
11763;SDS011;5939;56.522;14.950;2023-02-11T11:49:12;6.93;;;1.57;;
11763;SDS011;5939;56.522;14.950;2023-02-11T11:51:41;7.90;;;2.30;;
11763;SDS011;5939;56.522;14.950;2023-02-11T11:54:11;11.07;;;2.07;;
11763;SDS011;5939;56.522;14.950;2023-02-11T11:56:46;3.67;;;1.70;;
11763;SDS011;5939;56.522;14.950;2023-02-11T11:59:18;5.40;;;1.77;;
11763;SDS011;5939;56.522;14.950;2023-02-11T12:07:31;5.17;;;1.60;;
11763;SDS011;5939;56.522;14.950;2023-02-11T12:30:21;6.07;;;1.67;;
11763;SDS011;5939;56.522;14.950;2023-02-11T12:33:05;3.70;;;1.43;;
11763;SDS011;5939;56.522;14.950;2023-02-11T12:39:00;4.80;;;1.57;;
11763;SDS011;5939;56.522;14.950;2023-02-11T12:41:30;5.47;;;1.70;;
11763;SDS011;5939;56.522;14.950;2023-02-11T12:44:44;4.60;;;1.57;;
11763;SDS011;5939;56.522;14.950;2023-02-11T12:47:26;2.43;;;1.60;;
11763;SDS011;5939;56.522;14.950;2023-02-11T12:53:25;6.03;;;1.63;;
11763;SDS011;5939;56.522;14.950;2023-02-11T12:55:56;3.83;;;1.50;;
11763;SDS011;5939;56.522;14.950;2023-02-11T12:58:28;3.40;;;1.47;;
11763;SDS011;5939;56.522;14.950;2023-02-11T13:01:00;4.33;;;1.30;;
11763;SDS011;5939;56.522;14.950;2023-02-11T13:03:34;4.33;;;1.60;;
11763;SDS011;5939;56.522;14.950;2023-02-11T13:06:10;5.30;;;1.30;;
11763;SDS011;5939;56.522;14.950;2023-02-11T13:08:47;8.17;;;1.73;;
11763;SDS011;5939;56.522;14.950;2023-02-11T13:11:30;5.70;;;1.63;;
11763;SDS011;5939;56.522;14.950;2023-02-11T13:14:17;2.87;;;1.20;;
11763;SDS011;5939;56.522;14.950;2023-02-11T13:16:54;6.37;;;1.60;;
11763;SDS011;5939;56.522;14.950;2023-02-11T13:25:03;3.27;;;1.30;;
11763;SDS011;5939;56.522;14.950;2023-02-11T13:30:38;3.13;;;1.40;;
11763;SDS011;5939;56.522;14.950;2023-02-11T13:33:17;1.83;;;1.20;;
11763;SDS011;5939;56.522;14.950;2023-02-11T13:38:23;6.27;;;1.30;;
11763;SDS011;5939;56.522;14.950;2023-02-11T13:43:55;4.77;;;1.40;;
11763;SDS011;5939;56.522;14.950;2023-02-11T13:46:27;4.47;;;1.50;;
11763;SDS011;5939;56.522;14.950;2023-02-11T13:49:16;4.03;;;1.27;;
11763;SDS011;5939;56.522;14.950;2023-02-11T13:51:48;3.80;;;1.57;;
11763;SDS011;5939;56.522;14.950;2023-02-11T13:54:22;6.33;;;1.80;;
11763;SDS011;5939;56.522;14.950;2023-02-11T13:59:45;5.00;;;1.70;;
11763;SDS011;5939;56.522;14.950;2023-02-11T14:10:51;3.57;;;1.00;;
11763;SDS011;5939;56.522;14.950;2023-02-11T14:13:32;2.93;;;1.33;;
11763;SDS011;5939;56.522;14.950;2023-02-11T14:16:02;2.10;;;1.10;;
11763;SDS011;5939;56.522;14.950;2023-02-11T14:21:17;2.33;;;0.83;;
11763;SDS011;5939;56.522;14.950;2023-02-11T14:23:47;1.77;;;1.30;;
11763;SDS011;5939;56.522;14.950;2023-02-11T14:39:57;2.37;;;1.07;;
11763;SDS011;5939;56.522;14.950;2023-02-11T14:42:42;2.30;;;0.90;;
11763;SDS011;5939;56.522;14.950;2023-02-11T14:45:09;2.77;;;1.30;;
11763;SDS011;5939;56.522;14.950;2023-02-11T14:47:41;2.60;;;1.10;;
11763;SDS011;5939;56.522;14.950;2023-02-11T14:50:25;4.30;;;1.10;;
11763;SDS011;5939;56.522;14.950;2023-02-11T14:52:55;2.67;;;1.10;;
11763;SDS011;5939;56.522;14.950;2023-02-11T14:55:32;1.30;;;0.93;;
11763;SDS011;5939;56.522;14.950;2023-02-11T14:58:15;2.27;;;1.00;;
11763;SDS011;5939;56.522;14.950;2023-02-11T15:03:33;1.70;;;0.90;;
11763;SDS011;5939;56.522;14.950;2023-02-11T15:08:50;1.73;;;0.90;;
11763;SDS011;5939;56.522;14.950;2023-02-11T15:11:22;2.83;;;1.10;;
11763;SDS011;5939;56.522;14.950;2023-02-11T15:13:49;1.77;;;1.03;;
11763;SDS011;5939;56.522;14.950;2023-02-11T15:16:17;1.53;;;0.90;;
11763;SDS011;5939;56.522;14.950;2023-02-11T15:18:50;1.97;;;1.23;;
11763;SDS011;5939;56.522;14.950;2023-02-11T15:21:22;0.97;;;0.80;;
11763;SDS011;5939;56.522;14.950;2023-02-11T15:29:37;1.03;;;0.90;;
11763;SDS011;5939;56.522;14.950;2023-02-11T15:32:15;0.97;;;0.80;;
11763;SDS011;5939;56.522;14.950;2023-02-11T15:34:41;0.80;;;0.70;;
11763;SDS011;5939;56.522;14.950;2023-02-11T15:37:28;1.03;;;0.90;;
11763;SDS011;5939;56.522;14.950;2023-02-11T15:39:54;0.80;;;0.77;;
11763;SDS011;5939;56.522;14.950;2023-02-11T15:42:33;1.03;;;0.80;;
11763;SDS011;5939;56.522;14.950;2023-02-11T15:47:41;2.60;;;0.90;;
11763;SDS011;5939;56.522;14.950;2023-02-11T15:50:20;1.37;;;0.80;;
11763;SDS011;5939;56.522;14.950;2023-02-11T15:52:48;2.07;;;0.90;;
11763;SDS011;5939;56.522;14.950;2023-02-11T15:55:14;1.63;;;0.90;;
11763;SDS011;5939;56.522;14.950;2023-02-11T15:57:46;1.70;;;0.80;;
11763;SDS011;5939;56.522;14.950;2023-02-11T16:00:18;1.23;;;0.80;;
11763;SDS011;5939;56.522;14.950;2023-02-11T16:02:46;1.20;;;0.70;;
11763;SDS011;5939;56.522;14.950;2023-02-11T16:05:26;1.30;;;0.70;;
11763;SDS011;5939;56.522;14.950;2023-02-11T16:07:58;1.73;;;1.00;;
11763;SDS011;5939;56.522;14.950;2023-02-11T16:10:32;1.77;;;1.00;;
11763;SDS011;5939;56.522;14.950;2023-02-11T16:15:45;1.13;;;0.80;;
11763;SDS011;5939;56.522;14.950;2023-02-11T16:18:37;1.97;;;0.70;;
11763;SDS011;5939;56.522;14.950;2023-02-11T16:21:13;0.80;;;0.80;;
11763;SDS011;5939;56.522;14.950;2023-02-11T16:23:48;0.80;;;0.70;;
11763;SDS011;5939;56.522;14.950;2023-02-11T16:26:28;1.97;;;0.70;;
11763;SDS011;5939;56.522;14.950;2023-02-11T16:29:03;1.03;;;0.70;;
11763;SDS011;5939;56.522;14.950;2023-02-11T16:31:50;1.03;;;0.83;;
11763;SDS011;5939;56.522;14.950;2023-02-11T16:34:18;1.67;;;0.80;;
11763;SDS011;5939;56.522;14.950;2023-02-11T16:36:47;1.33;;;0.60;;
11763;SDS011;5939;56.522;14.950;2023-02-11T16:39:14;1.40;;;0.80;;
11763;SDS011;5939;56.522;14.950;2023-02-11T16:41:41;1.57;;;0.87;;
11763;SDS011;5939;56.522;14.950;2023-02-11T16:44:07;1.50;;;0.83;;
11763;SDS011;5939;56.522;14.950;2023-02-11T16:46:33;2.17;;;0.90;;
11763;SDS011;5939;56.522;14.950;2023-02-11T16:49:07;1.00;;;0.83;;
11763;SDS011;5939;56.522;14.950;2023-02-11T16:51:54;1.37;;;0.90;;
11763;SDS011;5939;56.522;14.950;2023-02-11T16:54:25;1.00;;;0.90;;
11763;SDS011;5939;56.522;14.950;2023-02-11T16:56:52;1.20;;;0.90;;
11763;SDS011;5939;56.522;14.950;2023-02-11T16:59:18;1.20;;;0.63;;
11763;SDS011;5939;56.522;14.950;2023-02-11T17:01:44;0.60;;;0.60;;
11763;SDS011;5939;56.522;14.950;2023-02-11T17:04:17;1.57;;;0.80;;
11763;SDS011;5939;56.522;14.950;2023-02-11T17:06:50;0.87;;;0.60;;
11763;SDS011;5939;56.522;14.950;2023-02-11T17:09:22;1.40;;;0.80;;
11763;SDS011;5939;56.522;14.950;2023-02-11T17:11:49;0.63;;;0.60;;
11763;SDS011;5939;56.522;14.950;2023-02-11T17:14:15;0.70;;;0.70;;
11763;SDS011;5939;56.522;14.950;2023-02-11T17:16:42;0.67;;;0.67;;
11763;SDS011;5939;56.522;14.950;2023-02-11T17:19:12;0.93;;;0.63;;
11763;SDS011;5939;56.522;14.950;2023-02-11T17:21:41;1.43;;;0.80;;
11763;SDS011;5939;56.522;14.950;2023-02-11T17:24:07;0.97;;;0.77;;
11763;SDS011;5939;56.522;14.950;2023-02-11T17:26:33;0.80;;;0.80;;
11763;SDS011;5939;56.522;14.950;2023-02-11T17:29:00;1.00;;;0.60;;
11763;SDS011;5939;56.522;14.950;2023-02-11T17:31:30;2.00;;;0.70;;
11763;SDS011;5939;56.522;14.950;2023-02-11T17:33:56;1.30;;;0.93;;
11763;SDS011;5939;56.522;14.950;2023-02-11T17:36:22;0.83;;;0.73;;
11763;SDS011;5939;56.522;14.950;2023-02-11T17:38:47;1.63;;;1.17;;
11763;SDS011;5939;56.522;14.950;2023-02-11T17:41:13;0.80;;;0.70;;
11763;SDS011;5939;56.522;14.950;2023-02-11T17:43:38;0.87;;;0.77;;
11763;SDS011;5939;56.522;14.950;2023-02-11T17:46:05;1.47;;;0.77;;
11763;SDS011;5939;56.522;14.950;2023-02-11T17:48:32;1.83;;;0.70;;
11763;SDS011;5939;56.522;14.950;2023-02-11T17:50:57;1.63;;;1.07;;